Time;durP1;ratioP1;P1;durP2;ratioP2;P2;SDS_P1;SDS_P2;PMS_P1;PMS_P2;Temp;Humidity;BMP_temperature;BMP_pressure;BME280_temperature;BME280_humidity;BME280_pressure;Samples;Min_cycle;Max_cycle;Signal;HPM_P1;HPM_P2
2024/04/06 00:01:21;;;;;;;3.10;1.95;;;;;;;17.72;54.46;98722.94;5733353;25;20041;-61
2024/04/06 00:03:49;;;;;;;5.55;1.98;;;;;;;17.56;54.95;98721.28;5692619;25;20034;-61
2024/04/06 00:06:19;;;;;;;4.15;2.20;;;;;;;17.46;55.15;98716.53;5694068;25;20068;-62
2024/04/06 00:08:47;;;;;;;3.38;2.00;;;;;;;17.41;55.04;98711.38;5693094;25;20025;-62
2024/04/06 00:11:14;;;;;;;5.20;2.10;;;;;;;17.41;55.04;98716.13;5691422;25;20042;-62
2024/04/06 00:13:41;;;;;;;8.40;4.38;;;;;;;17.31;55.13;98714.91;5693793;25;20105;-62
2024/04/06 00:16:07;;;;;;;6.00;2.67;;;;;;;17.26;55.17;98721.56;5692191;25;20101;-62
2024/04/06 00:18:35;;;;;;;5.75;2.33;;;;;;;17.29;55.21;98717.25;5690494;25;20448;-62
2024/04/06 00:21:02;;;;;;;4.38;2.80;;;;;;;17.24;55.55;98709.34;5694069;25;20105;-63
2024/04/06 00:23:28;;;;;;;5.28;2.80;;;;;;;17.14;55.46;98710.13;5692463;25;20049;-61
2024/04/06 00:25:55;;;;;;;5.18;3.08;;;;;;;17.09;56.08;98710.47;5694769;25;20111;-62
2024/04/06 00:28:22;;;;;;;4.30;3.20;;;;;;;17.06;55.80;98714.00;5656651;25;20493;-63
2024/04/06 00:30:49;;;;;;;5.72;2.58;;;;;;;17.00;55.60;98721.06;5710634;24;20480;-62
2024/04/06 00:33:15;;;;;;;6.43;2.33;;;;;;;17.05;55.61;98712.44;5719320;25;20110;-62
2024/04/06 00:35:41;;;;;;;3.47;1.90;;;;;;;17.10;54.87;98721.09;5736072;25;20045;-62
2024/04/06 00:38:08;;;;;;;2.40;1.92;;;;;;;17.13;54.65;98725.06;5735066;25;20033;-62
2024/04/06 00:40:34;;;;;;;3.28;1.60;;;;;;;17.09;54.02;98715.97;5734202;25;20484;-62
2024/04/06 00:43:01;;;;;;;3.17;1.92;;;;;;;17.10;53.95;98725.81;5733813;25;20076;-62
2024/04/06 00:45:27;;;;;;;2.90;1.80;;;;;;;17.11;53.51;98721.91;5698443;25;20037;-62
2024/04/06 00:47:54;;;;;;;5.32;2.30;;;;;;;17.09;53.10;98716.78;5697347;25;20472;-62
2024/04/06 00:50:21;;;;;;;4.28;1.73;;;;;;;17.10;53.09;98712.84;5697565;25;20068;-63
2024/04/06 00:52:48;;;;;;;6.28;1.80;;;;;;;17.09;52.43;98708.50;5733551;25;20511;-63
2024/04/06 00:55:14;;;;;;;2.95;1.50;;;;;;;17.09;51.92;98708.50;5733747;25;20029;-62
2024/04/06 00:57:41;;;;;;;2.85;1.75;;;;;;;17.13;52.49;98712.09;5698212;25;20026;-63
2024/04/06 01:00:09;;;;;;;1.92;1.70;;;;;;;17.18;51.87;98710.91;5732702;25;20467;-63
2024/04/06 01:02:35;;;;;;;2.35;1.30;;;;;;;17.17;52.01;98714.84;5732801;25;20530;-63
2024/04/06 01:05:01;;;;;;;4.28;1.70;;;;;;;17.13;51.36;98714.06;5732654;25;20069;-63
2024/04/06 01:07:28;;;;;;;6.35;1.52;;;;;;;17.10;51.33;98714.81;5697304;25;20169;-63
2024/04/06 01:09:55;;;;;;;4.07;1.83;;;;;;;17.11;51.37;98708.94;5697641;25;20093;-64
2024/04/06 01:12:21;;;;;;;3.00;1.67;;;;;;;17.13;50.64;98701.06;5732565;25;20040;-64
2024/04/06 01:14:48;;;;;;;2.83;1.85;;;;;;;17.12;50.62;98705.00;5732273;25;20040;-63
2024/04/06 01:17:15;;;;;;;3.97;1.45;;;;;;;17.11;49.85;98708.16;5731693;25;20040;-63
2024/04/06 01:19:42;;;;;;;3.95;1.75;;;;;;;17.09;49.70;98705.75;5732471;25;20432;-63
2024/04/06 01:22:09;;;;;;;1.48;1.35;;;;;;;17.10;49.76;98698.28;5731858;25;20081;-64
2024/04/06 01:24:36;;;;;;;1.67;1.00;;;;;;;17.07;49.32;98699.06;5732899;25;20037;-63
2024/04/06 01:27:03;;;;;;;5.93;1.50;;;;;;;17.06;49.02;98695.50;5732311;25;20037;-63
2024/04/06 01:29:30;;;;;;;2.75;1.38;;;;;;;17.07;48.58;98688.81;5696828;25;20047;-63
2024/04/06 01:31:56;;;;;;;3.30;1.40;;;;;;;17.09;48.71;98694.72;5732042;25;20113;-63
2024/04/06 01:34:22;;;;;;;2.90;1.27;;;;;;;17.10;48.60;98688.03;5731998;25;20077;-63
2024/04/06 01:36:49;;;;;;;1.73;1.30;;;;;;;17.11;48.49;98684.13;5732412;25;20522;-63
2024/04/06 01:39:16;;;;;;;2.40;1.25;;;;;;;17.09;48.59;98686.47;5734129;25;20501;-63
2024/04/06 01:41:46;;;;;;;3.33;1.48;;;;;;;17.08;48.25;98686.84;5735558;25;20068;-63
2024/04/06 01:44:12;;;;;;;1.70;1.00;;;;;;;17.06;48.72;98691.97;5736651;25;20150;-63
2024/04/06 01:46:39;;;;;;;3.55;1.17;;;;;;;17.07;48.36;98688.03;5736176;25;20061;-63
2024/04/06 01:49:05;;;;;;;4.55;1.20;;;;;;;17.07;48.15;98679.75;5699465;25;20175;-64
2024/04/06 01:51:32;;;;;;;8.00;1.60;;;;;;;17.07;48.45;98666.78;5700831;25;20396;-63
2024/04/06 01:53:58;;;;;;;1.73;1.20;;;;;;;17.07;48.62;98660.47;5736111;25;20071;-64
2024/04/06 01:56:28;;;;;;;2.13;1.23;;;;;;;17.05;48.54;98658.09;5736426;25;20082;-63
2024/04/06 01:58:55;;;;;;;2.63;1.20;;;;;;;17.04;48.29;98661.25;5699150;25;20044;-62
2024/04/06 02:01:22;;;;;;;4.50;1.40;;;;;;;17.01;48.36;98662.03;5735508;25;20040;-62
2024/04/06 02:03:48;;;;;;;1.80;1.40;;;;;;;16.93;47.89;98672.25;5736794;24;20024;-63
2024/04/06 02:06:17;;;;;;;2.10;1.42;;;;;;;16.91;48.14;98678.13;5735842;25;20842;-63
2024/04/06 02:08:43;;;;;;;2.70;1.10;;;;;;;16.88;48.00;98684.41;5734759;25;20052;-64
2024/04/06 02:11:10;;;;;;;2.40;1.10;;;;;;;16.87;48.65;98682.03;5735272;25;20484;-63
2024/04/06 02:13:36;;;;;;;4.38;1.20;;;;;;;16.87;48.38;98687.53;5700649;25;20064;-63
2024/04/06 02:16:03;;;;;;;4.57;1.30;;;;;;;16.84;48.42;98691.88;5700328;25;20091;-63
2024/04/06 02:18:30;;;;;;;3.90;1.20;;;;;;;16.81;48.33;98689.88;5698992;25;20150;-63
2024/04/06 02:20:56;;;;;;;5.10;1.45;;;;;;;16.78;48.31;98692.63;5735623;25;20037;-63
2024/04/06 02:23:23;;;;;;;2.35;0.90;;;;;;;16.76;48.17;98694.97;5700017;25;20029;-63
2024/04/06 02:25:49;;;;;;;1.95;1.10;;;;;;;16.74;48.17;98700.09;5735205;25;20043;-63
2024/04/06 02:28:16;;;;;;;4.22;1.35;;;;;;;16.70;48.05;98704.75;5734980;25;20084;-63
2024/04/06 02:30:42;;;;;;;2.50;1.30;;;;;;;16.68;47.99;98710.66;5735063;25;20061;-63
2024/04/06 02:33:08;;;;;;;2.33;1.02;;;;;;;16.69;47.55;98700.44;5735056;25;20445;-63
2024/04/06 02:35:35;;;;;;;1.10;1.00;;;;;;;16.71;47.97;98709.88;5735409;25;20041;-64
2024/04/06 02:38:02;;;;;;;2.22;1.10;;;;;;;16.71;47.96;98707.13;5699301;25;20028;-63
2024/04/06 02:40:28;;;;;;;3.97;1.40;;;;;;;16.71;47.56;98698.88;5735189;25;20025;-68
2024/04/06 02:42:55;;;;;;;3.58;1.10;;;;;;;16.71;47.29;98685.09;5735227;25;20103;-63
2024/04/06 02:45:21;;;;;;;2.25;1.23;;;;;;;16.71;47.35;98681.56;5734860;25;20033;-63
2024/04/06 02:47:48;;;;;;;1.80;1.00;;;;;;;16.71;47.64;98687.06;5699305;25;20049;-63
2024/04/06 02:50:14;;;;;;;1.67;1.05;;;;;;;16.72;47.52;98688.63;5698367;25;20679;-63
2024/04/06 02:52:41;;;;;;;2.75;1.10;;;;;;;16.73;47.21;98691.00;5699451;25;20033;-63
2024/04/06 02:55:07;;;;;;;3.28;1.30;;;;;;;16.75;47.47;98687.91;5735894;25;20061;-63
2024/04/06 02:57:34;;;;;;;2.88;1.25;;;;;;;16.78;47.26;98701.69;5700090;25;20113;-64
2024/04/06 03:00:01;;;;;;;2.67;1.20;;;;;;;16.76;47.15;98701.28;5699727;25;20128;-64
2024/04/06 03:02:27;;;;;;;2.17;1.00;;;;;;;16.73;47.11;98702.03;5735865;25;20361;-64
2024/04/06 03:04:53;;;;;;;1.98;1.13;;;;;;;16.72;46.91;98710.66;5701388;25;20412;-64
2024/04/06 03:07:20;;;;;;;1.98;1.10;;;;;;;16.71;46.95;98709.09;5700631;25;20423;-63
2024/04/06 03:09:46;;;;;;;2.10;1.00;;;;;;;16.70;46.94;98702.00;5700872;25;20071;-62
2024/04/06 03:12:14;;;;;;;1.52;1.27;;;;;;;16.63;47.23;98711.78;5700823;25;20061;-62
2024/04/06 03:14:40;;;;;;;1.40;1.00;;;;;;;16.60;47.03;98703.50;5667550;25;20040;-62
2024/04/06 03:17:07;;;;;;;0.90;0.90;;;;;;;16.59;47.15;98707.44;5734961;25;20156;-63
2024/04/06 03:19:33;;;;;;;4.93;1.25;;;;;;;16.58;46.95;98712.16;5699508;25;20060;-63
2024/04/06 03:22:00;;;;;;;1.10;1.00;;;;;;;16.58;46.91;98714.13;5699454;25;20502;-62
2024/04/06 03:24:26;;;;;;;4.07;1.30;;;;;;;16.55;47.05;98707.41;5734531;25;20189;-63
2024/04/06 03:26:52;;;;;;;1.30;1.10;;;;;;;16.54;47.02;98711.31;5698816;25;20047;-62
2024/04/06 03:29:19;;;;;;;1.85;1.08;;;;;;;16.53;47.09;98712.50;5699982;25;20033;-62
2024/04/06 03:31:46;;;;;;;1.65;1.00;;;;;;;16.51;47.00;98716.81;5707593;25;20096;-62
2024/04/06 03:34:12;;;;;;;2.58;1.23;;;;;;;16.49;47.10;98725.44;5735431;24;20045;-62
2024/04/06 03:36:39;;;;;;;5.25;1.30;;;;;;;16.50;46.92;98732.53;5734287;25;20040;-63
2024/04/06 03:39:05;;;;;;;3.50;1.55;;;;;;;16.47;47.19;98732.50;5697241;25;20448;-63
2024/04/06 03:41:32;;;;;;;3.58;1.35;;;;;;;16.46;47.20;98725.41;5734948;25;20431;-62
2024/04/06 03:43:59;;;;;;;3.15;1.20;;;;;;;16.48;47.13;98725.81;5698759;25;20040;-62
2024/04/06 03:46:28;;;;;;;3.17;1.23;;;;;;;16.47;46.70;98724.25;5699663;25;20412;-62
2024/04/06 03:48:55;;;;;;;2.47;1.30;;;;;;;16.47;46.95;98735.25;5733117;25;20397;-63
2024/04/06 03:51:23;;;;;;;2.47;1.00;;;;;;;16.47;46.76;98741.56;5734729;25;20041;-62
2024/04/06 03:53:50;;;;;;;1.90;1.55;;;;;;;16.46;46.87;98744.69;5734124;25;20068;-62
2024/04/06 03:56:16;;;;;;;4.80;1.38;;;;;;;16.46;47.05;98728.97;5699732;25;20048;-62
2024/04/06 03:58:43;;;;;;;2.00;1.27;;;;;;;16.47;47.42;98730.53;5699209;25;20048;-62
2024/04/06 04:01:10;;;;;;;1.63;1.27;;;;;;;16.47;47.04;98736.06;5700074;25;20040;-61
2024/04/06 04:03:37;;;;;;;2.80;1.15;;;;;;;16.44;47.15;98727.78;5710396;25;20036;-63
2024/04/06 04:06:04;;;;;;;3.25;1.30;;;;;;;16.43;47.03;98728.94;5735056;25;20041;-62
2024/04/06 04:08:31;;;;;;;1.52;1.02;;;;;;;16.42;46.65;98722.66;5734834;25;20081;-62
2024/04/06 04:10:57;;;;;;;1.85;1.00;;;;;;;16.42;47.30;98725.41;5734938;25;20037;-62
2024/04/06 04:13:24;;;;;;;5.47;1.30;;;;;;;16.43;46.86;98726.19;5700991;25;20476;-61
2024/04/06 04:15:51;;;;;;;4.68;1.83;;;;;;;16.39;46.91;98728.13;5735630;25;20033;-62
2024/04/06 04:18:17;;;;;;;5.90;1.00;;;;;;;16.39;47.18;98722.63;5734290;25;20058;-61
2024/04/06 04:20:44;;;;;;;3.60;1.30;;;;;;;16.40;47.30;98729.72;5700118;25;20041;-64
2024/04/06 04:23:10;;;;;;;2.17;1.13;;;;;;;16.40;47.37;98729.72;5735287;25;20116;-62
2024/04/06 04:25:37;;;;;;;1.90;1.35;;;;;;;16.38;47.19;98737.56;5700365;25;20488;-62
2024/04/06 04:28:04;;;;;;;2.80;1.10;;;;;;;16.37;47.22;98733.22;5735625;25;20035;-62
2024/04/06 04:30:31;;;;;;;1.38;0.95;;;;;;;16.39;46.90;98741.91;5736485;25;20030;-62
2024/04/06 04:32:58;;;;;;;3.47;1.17;;;;;;;16.40;47.48;98740.72;5738597;25;20037;-63
2024/04/06 04:35:24;;;;;;;1.30;1.20;;;;;;;16.39;47.08;98739.16;5705225;25;20037;-63
2024/04/06 04:37:51;;;;;;;2.63;1.20;;;;;;;16.35;47.09;98737.13;5738981;25;20129;-63
2024/04/06 04:40:18;;;;;;;2.78;1.20;;;;;;;16.34;47.40;98737.50;5742354;25;20052;-62
2024/04/06 04:42:44;;;;;;;1.33;1.23;;;;;;;16.30;47.17;98740.25;5707652;25;20237;-61
2024/04/06 04:45:13;;;;;;;1.42;1.10;;;;;;;16.28;47.13;98739.03;5744275;25;20040;-62
2024/04/06 04:47:41;;;;;;;2.25;1.00;;;;;;;16.24;47.22;98735.47;5742886;25;20142;-62
2024/04/06 04:50:09;;;;;;;2.00;1.17;;;;;;;16.21;47.20;98745.28;5740437;25;20486;-62
2024/04/06 04:52:36;;;;;;;3.25;1.20;;;;;;;16.19;47.06;98750.38;5706543;25;20037;-62
2024/04/06 04:55:04;;;;;;;2.80;1.50;;;;;;;16.17;47.54;98752.69;5707801;25;20090;-63
2024/04/06 04:57:31;;;;;;;2.85;1.40;;;;;;;16.15;47.50;98751.50;5704186;25;20150;-64
2024/04/06 04:59:57;;;;;;;2.90;1.17;;;;;;;16.14;47.62;98745.22;5709724;25;20158;-62
2024/04/06 05:02:24;;;;;;;3.08;1.35;;;;;;;16.15;47.57;98755.03;5749959;25;20068;-61
2024/04/06 05:04:51;;;;;;;2.47;1.30;;;;;;;16.17;47.68;98749.94;5751572;25;20037;-63
2024/04/06 05:07:19;;;;;;;5.95;1.30;;;;;;;16.19;47.40;98741.34;5686298;25;20115;-62
2024/04/06 05:09:47;;;;;;;3.75;1.50;;;;;;;16.21;47.62;98748.03;5755871;25;20640;-62
2024/04/06 05:12:14;;;;;;;2.08;1.70;;;;;;;16.22;47.54;98746.06;5717815;25;20036;-62
2024/04/06 05:14:41;;;;;;;2.17;1.15;;;;;;;16.24;47.35;98746.50;5747404;25;20110;-62
2024/04/06 05:17:07;;;;;;;2.88;1.30;;;;;;;16.27;47.23;98743.75;5745062;25;20185;-62
2024/04/06 05:19:35;;;;;;;3.97;1.30;;;;;;;16.32;47.19;98739.84;5742714;25;20122;-63
2024/04/06 05:22:02;;;;;;;3.15;1.25;;;;;;;16.40;47.11;98743.47;5705971;25;20048;-63
2024/04/06 05:24:28;;;;;;;1.30;1.20;;;;;;;16.44;47.05;98739.56;5740315;25;20033;-62
2024/04/06 05:26:56;;;;;;;2.45;1.40;;;;;;;16.51;46.87;98742.38;5703802;25;20091;-62
2024/04/06 05:29:22;;;;;;;3.38;1.55;;;;;;;16.53;46.66;98748.28;5706119;25;20132;-62
2024/04/06 05:31:50;;;;;;;1.55;1.10;;;;;;;16.57;46.28;98757.38;5741038;24;20575;-63
2024/04/06 05:34:16;;;;;;;1.92;1.10;;;;;;;16.60;46.32;98758.56;5702079;25;20053;-62
2024/04/06 05:36:43;;;;;;;2.28;1.08;;;;;;;16.64;46.24;98767.63;5666326;25;20052;-61
2024/04/06 05:39:10;;;;;;;2.95;1.10;;;;;;;16.72;46.54;98765.75;5700377;25;20185;-63
2024/04/06 05:41:37;;;;;;;1.10;1.00;;;;;;;16.79;46.11;98774.84;5698508;25;20073;-62
2024/04/06 05:44:03;;;;;;;4.55;1.40;;;;;;;16.85;45.71;98778.81;5698455;25;20108;-63
2024/04/06 05:46:33;;;;;;;1.95;1.00;;;;;;;16.94;45.94;98775.75;5698858;25;20119;-63
2024/04/06 05:49:00;;;;;;;3.80;1.30;;;;;;;17.02;45.70;98780.13;5696497;25;20046;-62
2024/04/06 05:51:28;;;;;;;2.00;1.30;;;;;;;17.09;45.09;98780.16;5664025;25;20026;-62
2024/04/06 05:53:54;;;;;;;1.45;1.15;;;;;;;17.21;44.55;98787.31;5631076;25;20545;-63
2024/04/06 05:56:21;;;;;;;1.75;1.08;;;;;;;17.32;44.59;98785.41;5662035;25;20042;-63
2024/04/06 05:58:48;;;;;;;1.55;1.17;;;;;;;17.39;44.56;98784.63;5662343;25;20530;-64
2024/04/06 06:01:14;;;;;;;2.47;1.10;;;;;;;17.48;44.33;98785.88;5718408;24;20672;-64
2024/04/06 06:03:42;;;;;;;2.80;1.50;;;;;;;17.53;43.96;98774.47;5712419;25;20485;-64
2024/04/06 06:06:08;;;;;;;2.88;1.00;;;;;;;17.61;43.69;98780.00;5739088;25;20581;-62
2024/04/06 06:08:35;;;;;;;2.13;1.08;;;;;;;17.70;43.73;98775.72;5737111;25;20029;-62
2024/04/06 06:11:02;;;;;;;2.00;1.00;;;;;;;17.81;43.67;98768.25;5702570;25;20120;-63
2024/04/06 06:13:29;;;;;;;2.30;1.35;;;;;;;17.87;43.39;98765.94;5701772;25;20149;-62
2024/04/06 06:15:55;;;;;;;2.92;1.10;;;;;;;17.95;42.95;98773.03;5737438;25;20041;-63
2024/04/06 06:18:22;;;;;;;2.05;1.00;;;;;;;18.01;42.80;98771.44;5701433;25;20033;-62
2024/04/06 06:20:48;;;;;;;4.88;1.25;;;;;;;18.10;42.86;98762.81;5737986;25;20165;-63
2024/04/06 06:23:15;;;;;;;3.00;1.23;;;;;;;18.22;42.95;98767.13;5737563;25;20033;-63
2024/04/06 06:25:42;;;;;;;4.15;1.10;;;;;;;18.34;41.96;98783.34;5736148;25;20072;-62
2024/04/06 06:28:08;;;;;;;1.35;1.10;;;;;;;18.39;42.08;98786.47;5701168;25;20049;-62
2024/04/06 06:30:35;;;;;;;1.60;1.00;;;;;;;18.45;42.48;98786.91;5737304;25;20146;-62
2024/04/06 06:33:02;;;;;;;2.00;1.25;;;;;;;18.50;41.58;98783.72;5684005;25;20040;-64
2024/04/06 06:35:28;;;;;;;2.03;1.05;;;;;;;18.54;42.19;98784.50;5700769;25;20155;-63
2024/04/06 06:37:55;;;;;;;1.40;1.10;;;;;;;18.56;41.14;98790.44;5700027;25;20043;-64
2024/04/06 06:40:21;;;;;;;1.55;1.10;;;;;;;18.59;41.13;98789.63;5735522;25;20509;-63
2024/04/06 06:42:51;;;;;;;2.90;1.08;;;;;;;18.54;40.61;98781.75;5702479;25;20072;-63
2024/04/06 06:45:17;;;;;;;1.75;1.20;;;;;;;18.54;41.43;98789.25;5701953;25;20096;-64
2024/04/06 06:47:44;;;;;;;2.05;1.00;;;;;;;18.55;41.25;98788.06;5737487;25;20033;-62
2024/04/06 06:50:11;;;;;;;3.58;0.90;;;;;;;18.59;40.84;98786.88;5702501;25;20025;-62
2024/04/06 06:52:37;;;;;;;1.80;1.13;;;;;;;18.64;40.91;98794.03;5702155;25;20528;-63
2024/04/06 06:55:04;;;;;;;2.25;1.15;;;;;;;18.68;40.40;98786.53;5737363;25;20153;-63
2024/04/06 06:57:30;;;;;;;2.65;1.20;;;;;;;18.75;40.49;98789.28;5702157;25;20110;-62
2024/04/06 06:59:57;;;;;;;2.25;1.40;;;;;;;18.80;40.61;98794.41;5704783;25;20056;-62
2024/04/06 07:02:26;;;;;;;3.17;0.90;;;;;;;18.86;40.03;98789.28;5722438;25;20149;-62
2024/04/06 07:04:53;;;;;;;2.22;1.20;;;;;;;18.91;40.40;98786.09;5740652;25;20068;-62
2024/04/06 07:07:20;;;;;;;1.85;1.00;;;;;;;19.01;40.23;98790.81;5739506;25;20029;-62
2024/04/06 07:09:46;;;;;;;2.63;1.35;;;;;;;19.09;40.04;98789.63;5702887;25;20033;-62
2024/04/06 07:12:12;;;;;;;3.63;1.50;;;;;;;19.14;39.65;98794.72;5700403;25;20109;-62
2024/04/06 07:14:39;;;;;;;1.60;1.10;;;;;;;19.21;39.76;98791.19;5734630;25;20104;-63
2024/04/06 07:17:05;;;;;;;3.13;1.00;;;;;;;19.30;39.75;98799.81;5700085;25;20423;-62
2024/04/06 07:19:32;;;;;;;2.38;1.30;;;;;;;19.31;38.24;98795.88;5735132;25;20150;-62
2024/04/06 07:21:58;;;;;;;1.42;1.20;;;;;;;19.35;38.60;98794.69;5698966;25;20071;-63
2024/04/06 07:24:25;;;;;;;3.45;1.10;;;;;;;19.46;38.23;98799.38;5699401;25;20470;-63
2024/04/06 07:26:51;;;;;;;2.58;1.23;;;;;;;19.55;38.07;98789.50;5702334;25;20037;-63
2024/04/06 07:29:17;;;;;;;1.45;1.30;;;;;;;19.64;37.94;98786.28;5740317;25;20120;-63
2024/04/06 07:31:44;;;;;;;2.70;1.00;;;;;;;19.71;37.53;98785.47;5712218;25;20154;-63
2024/04/06 07:34:10;;;;;;;3.55;1.05;;;;;;;19.78;37.53;98786.22;5706240;25;20114;-62
2024/04/06 07:36:37;;;;;;;1.30;0.90;;;;;;;19.83;36.73;98777.50;5737153;25;20120;-62
2024/04/06 07:39:03;;;;;;;1.27;1.02;;;;;;;19.90;37.03;98768.38;5699775;25;20065;-63
2024/04/06 07:41:33;;;;;;;3.67;1.17;;;;;;;20.00;37.14;98775.03;5702461;25;20024;-62
2024/04/06 07:43:59;;;;;;;1.63;1.13;;;;;;;20.06;36.99;98771.44;5736569;25;20056;-62
2024/04/06 07:46:26;;;;;;;2.70;1.08;;;;;;;20.12;36.51;98769.03;5701325;25;20033;-62
2024/04/06 07:48:52;;;;;;;2.63;1.10;;;;;;;20.21;36.27;98763.81;5734316;25;20036;-63
2024/04/06 07:51:19;;;;;;;2.50;1.08;;;;;;;20.36;36.46;98770.81;5700759;25;20103;-62
2024/04/06 07:53:45;;;;;;;5.63;1.40;;;;;;;20.50;36.14;98751.34;5701174;25;20040;-63
2024/04/06 07:56:12;;;;;;;2.85;2.08;;;;;;;20.61;35.58;98764.31;5737467;25;20060;-62
2024/04/06 07:58:38;;;;;;;2.10;1.00;;;;;;;20.63;35.32;98759.16;5736135;25;20045;-63
2024/04/06 08:01:05;;;;;;;3.42;2.00;;;;;;;20.68;35.07;98747.66;5736207;25;20037;-63
2024/04/06 08:03:31;;;;;;;3.45;0.90;;;;;;;20.78;35.33;98747.53;5712569;25;20071;-62
2024/04/06 08:06:01;;;;;;;1.25;0.80;;;;;;;20.81;33.87;98743.13;5698729;25;20037;-62
2024/04/06 08:08:27;;;;;;;1.23;1.00;;;;;;;20.90;34.49;98740.69;5698079;25;20412;-62
2024/04/06 08:10:54;;;;;;;1.15;1.00;;;;;;;21.01;33.94;98738.59;5698753;25;20573;-62
2024/04/06 08:13:20;;;;;;;2.72;1.30;;;;;;;21.13;33.52;98723.38;5699677;25;20045;-63
2024/04/06 08:15:47;;;;;;;3.10;1.10;;;;;;;21.21;33.54;98732.44;5698347;25;20040;-64
2024/04/06 08:18:13;;;;;;;2.08;1.60;;;;;;;21.30;33.25;98730.75;5733302;25;20041;-62
2024/04/06 08:20:40;;;;;;;4.18;1.00;;;;;;;21.37;33.15;98732.63;5698204;25;20173;-63
2024/04/06 08:23:07;;;;;;;1.67;1.13;;;;;;;21.45;33.05;98718.28;5733603;25;20033;-63
2024/04/06 08:25:36;;;;;;;1.42;0.80;;;;;;;21.58;32.67;98721.28;5700026;25;20043;-64
2024/04/06 08:28:03;;;;;;;5.07;1.75;;;;;;;21.66;32.35;98719.97;5733518;25;20513;-63
2024/04/06 08:30:29;;;;;;;1.63;0.93;;;;;;;21.74;31.66;98723.41;5734056;25;20048;-63
2024/04/06 08:32:56;;;;;;;1.05;0.90;;;;;;;21.77;31.59;98734.50;5734101;25;20115;-64
2024/04/06 08:35:27;;;;;;;1.73;1.10;;;;;;;21.88;31.78;98736.31;5733526;25;20051;-63
2024/04/06 08:37:53;;;;;;;3.75;1.13;;;;;;;21.97;31.28;98731.03;5665105;25;20071;-64
2024/04/06 08:40:20;;;;;;;7.60;1.45;;;;;;;22.04;30.94;98728.16;5697765;25;20053;-63
2024/04/06 08:42:46;;;;;;;4.45;1.58;;;;;;;22.14;30.76;98730.03;5733960;25;20029;-64
2024/04/06 08:45:13;;;;;;;4.53;1.02;;;;;;;22.23;30.65;98726.69;5733659;25;20037;-62
2024/04/06 08:47:40;;;;;;;4.50;1.00;;;;;;;22.31;30.20;98723.41;5732813;25;20420;-63
2024/04/06 08:50:08;;;;;;;3.90;0.90;;;;;;;22.34;30.28;98725.31;5732576;25;20162;-63
2024/04/06 08:52:36;;;;;;;1.30;0.90;;;;;;;22.40;30.27;98717.28;5732926;25;20336;-64
2024/04/06 08:55:05;;;;;;;1.60;0.90;;;;;;;22.48;30.62;98715.16;5733205;25;20041;-63
2024/04/06 08:57:37;;;;;;;2.05;1.20;;;;;;;22.63;30.15;98713.69;5732435;25;20043;-64
2024/04/06 09:00:10;;;;;;;2.10;0.95;;;;;;;22.75;30.04;98715.88;5698358;25;20064;-64
2024/04/06 09:02:37;;;;;;;1.25;1.15;;;;;;;22.86;29.80;98710.91;5703501;25;20036;-64
2024/04/06 09:05:05;;;;;;;2.35;1.02;;;;;;;22.95;28.80;98724.28;5734042;24;20070;-62
2024/04/06 09:07:32;;;;;;;1.50;0.80;;;;;;;23.04;29.22;98712.56;5733337;24;20116;-64
2024/04/06 09:09:58;;;;;;;2.15;0.88;;;;;;;23.12;28.68;98711.22;5733199;24;20029;-64
2024/04/06 09:12:25;;;;;;;1.80;0.80;;;;;;;23.19;28.39;98716.66;5731016;24;20044;-63
2024/04/06 09:14:51;;;;;;;1.02;0.93;;;;;;;23.32;28.21;98716.78;5731148;24;20036;-63
2024/04/06 09:17:19;;;;;;;2.53;1.30;;;;;;;23.46;28.28;98714.50;5732576;24;20029;-63
2024/04/06 09:19:45;;;;;;;0.98;0.90;;;;;;;23.65;27.55;98709.38;5731775;24;20141;-63
2024/04/06 09:22:12;;;;;;;2.05;1.25;;;;;;;23.76;28.02;98705.09;5731114;24;20029;-64
2024/04/06 09:24:39;;;;;;;2.03;1.00;;;;;;;23.99;27.53;98711.78;5733442;24;20045;-63
2024/04/06 09:27:07;;;;;;;1.98;0.90;;;;;;;24.16;27.23;98710.53;5732986;24;20526;-63
2024/04/06 09:29:34;;;;;;;3.30;1.08;;;;;;;24.31;27.26;98716.59;5733120;24;20052;-64
2024/04/06 09:32:03;;;;;;;3.08;1.00;;;;;;;24.44;26.64;98707.09;5684324;25;20156;-63
2024/04/06 09:34:30;;;;;;;1.20;0.98;;;;;;;24.63;26.16;98710.19;5730712;25;20032;-64
2024/04/06 09:37:04;;;;;;;1.13;0.80;;;;;;;24.80;26.24;98700.59;5732608;24;20057;-64
2024/04/06 09:39:33;;;;;;;2.33;1.00;;;;;;;24.91;25.45;98708.63;5730072;25;20041;-65
2024/04/06 09:42:00;;;;;;;1.40;0.70;;;;;;;24.91;26.01;98703.06;5730289;25;20122;-65
2024/04/06 09:44:31;;;;;;;1.63;1.00;;;;;;;25.08;26.41;98696.25;5730292;25;20052;-65
2024/04/06 09:46:59;;;;;;;1.98;0.82;;;;;;;25.28;25.89;98691.25;5731639;24;20415;-64
2024/04/06 09:49:28;;;;;;;2.03;1.05;;;;;;;25.44;25.30;98684.81;5732063;24;20045;-63
2024/04/06 09:51:55;;;;;;;3.17;0.98;;;;;;;25.43;24.79;98679.69;5732058;24;20044;-66
2024/04/06 09:54:21;;;;;;;3.20;1.00;;;;;;;25.44;24.30;98673.66;5732036;24;20185;-64
2024/04/06 09:56:48;;;;;;;3.30;0.80;;;;;;;25.59;24.18;98674.00;5731907;24;20631;-64
2024/04/06 09:59:22;;;;;;;1.30;0.90;;;;;;;25.81;24.40;98683.31;5730158;25;20048;-64
2024/04/06 10:01:53;;;;;;;1.85;0.95;;;;;;;25.86;23.98;98682.78;5716988;25;20524;-64
2024/04/06 10:04:24;;;;;;;1.75;0.60;;;;;;;25.85;23.96;98680.44;5661564;25;20033;-65
2024/04/06 10:06:53;;;;;;;2.70;0.90;;;;;;;25.77;23.37;98681.88;5661843;25;20155;-64
2024/04/06 10:09:19;;;;;;;4.95;1.38;;;;;;;25.71;23.42;98683.66;5696286;25;20058;-64
2024/04/06 10:11:46;;;;;;;3.65;1.10;;;;;;;25.77;24.00;98679.06;5696295;25;20154;-64
2024/04/06 10:14:12;;;;;;;1.88;1.08;;;;;;;25.84;23.67;98676.03;5696220;25;20116;-64
2024/04/06 10:16:42;;;;;;;1.10;0.88;;;;;;;25.85;23.05;98672.84;5696198;25;20672;-64
2024/04/06 10:19:11;;;;;;;1.55;0.75;;;;;;;25.97;23.31;98671.25;5696025;25;20536;-64
2024/04/06 10:21:45;;;;;;;3.58;0.95;;;;;;;26.05;23.48;98671.81;5693121;25;20037;-64
2024/04/06 10:24:16;;;;;;;1.58;1.00;;;;;;;26.15;22.87;98671.44;5696321;25;20030;-64
2024/04/06 10:26:47;;;;;;;2.85;0.85;;;;;;;26.17;22.81;98662.59;5696118;25;20061;-64
2024/04/06 10:29:14;;;;;;;2.17;1.00;;;;;;;26.16;22.57;98661.81;5660342;25;20038;-64
2024/04/06 10:31:41;;;;;;;0.63;0.63;;;;;;;26.20;22.43;98667.28;5690470;25;20112;-65
2024/04/06 10:34:14;;;;;;;2.17;1.20;;;;;;;26.27;22.41;98667.84;5736367;25;20111;-64
2024/04/06 10:36:40;;;;;;;2.13;1.50;;;;;;;26.21;22.55;98669.63;5735743;24;20158;-65
2024/04/06 10:39:10;;;;;;;2.15;0.90;;;;;;;26.17;22.22;98663.38;5734471;24;20369;-64
2024/04/06 10:41:42;;;;;;;1.10;0.77;;;;;;;26.04;22.00;98665.44;5732617;24;20116;-64
2024/04/06 10:44:11;;;;;;;2.90;1.00;;;;;;;25.95;22.36;98659.72;5735430;24;20029;-64
2024/04/06 10:46:39;;;;;;;2.10;1.20;;;;;;;25.91;22.45;98662.66;5735877;24;20037;-64
2024/04/06 10:49:12;;;;;;;2.58;0.98;;;;;;;25.89;22.46;98653.16;5732187;25;20066;-64
2024/04/06 10:51:41;;;;;;;2.75;1.00;;;;;;;25.88;22.31;98646.00;5733132;25;20045;-64
2024/04/06 10:54:08;;;;;;;5.65;1.63;;;;;;;25.89;22.44;98641.97;5732653;24;20029;-64
2024/04/06 10:56:36;;;;;;;2.13;1.00;;;;;;;25.96;22.57;98636.16;5734912;24;20033;-64
2024/04/06 10:59:03;;;;;;;2.17;1.00;;;;;;;26.16;22.37;98631.06;5731714;25;20476;-64
2024/04/06 11:01:34;;;;;;;0.98;0.85;;;;;;;26.33;22.03;98628.13;5735195;24;20033;-61
2024/04/06 11:04:04;;;;;;;1.25;0.90;;;;;;;26.47;21.45;98614.47;5729386;25;20178;-63
2024/04/06 11:06:30;;;;;;;3.05;0.98;;;;;;;26.54;21.54;98613.44;5735262;24;20057;-62
2024/04/06 11:09:01;;;;;;;2.25;0.68;;;;;;;26.63;21.84;98612.72;5733741;24;20462;-63
2024/04/06 11:11:29;;;;;;;0.85;0.80;;;;;;;26.77;21.63;98615.00;5733612;24;20068;-62
2024/04/06 11:13:59;;;;;;;2.20;1.02;;;;;;;26.86;21.54;98603.88;5735448;24;20040;-63
2024/04/06 11:16:25;;;;;;;2.22;1.15;;;;;;;26.95;21.30;98608.75;5735312;25;20041;-63
2024/04/06 11:18:52;;;;;;;1.30;1.05;;;;;;;26.98;21.23;98610.66;5731650;24;20108;-63
2024/04/06 11:21:18;;;;;;;1.83;0.90;;;;;;;27.02;21.67;98614.91;5734507;24;20149;-63
2024/04/06 11:23:48;;;;;;;1.95;0.90;;;;;;;27.03;20.41;98605.25;5735878;24;20297;-62
2024/04/06 11:26:20;;;;;;;2.00;1.27;;;;;;;27.05;20.91;98602.78;5732635;25;20029;-63
2024/04/06 11:28:47;;;;;;;1.83;1.13;;;;;;;27.12;20.34;98598.91;5734217;24;20114;-63
2024/04/06 11:31:16;;;;;;;2.20;0.98;;;;;;;27.11;20.11;98612.13;5734482;24;20053;-62
2024/04/06 11:33:43;;;;;;;2.13;0.90;;;;;;;27.14;20.18;98610.44;5735731;24;20033;-63